sensor_id;sensor_type;location;lat;lon;timestamp;pressure;altitude;pressure_sealevel;temperature;humidity
38912;BME280;28444;48.056;14.408;2023-12-07T00:00:38;97759.38;;;1.00;100.00
38912;BME280;28444;48.056;14.408;2023-12-07T00:03:05;97762.31;;;1.02;100.00
38912;BME280;28444;48.056;14.408;2023-12-07T00:05:35;97767.44;;;1.05;100.00
38912;BME280;28444;48.056;14.408;2023-12-07T00:08:01;97766.75;;;0.99;100.00
38912;BME280;28444;48.056;14.408;2023-12-07T00:10:28;97766.00;;;1.04;100.00
38912;BME280;28444;48.056;14.408;2023-12-07T00:12:55;97770.66;;;1.09;100.00
38912;BME280;28444;48.056;14.408;2023-12-07T00:15:21;97767.69;;;1.02;100.00
38912;BME280;28444;48.056;14.408;2023-12-07T00:17:48;97765.25;;;1.04;100.00
38912;BME280;28444;48.056;14.408;2023-12-07T00:20:14;97764.53;;;0.98;100.00
38912;BME280;28444;48.056;14.408;2023-12-07T00:22:41;97765.75;;;1.02;100.00
38912;BME280;28444;48.056;14.408;2023-12-07T00:25:08;97766.72;;;1.10;100.00
38912;BME280;28444;48.056;14.408;2023-12-07T00:27:35;97762.53;;;1.15;100.00
38912;BME280;28444;48.056;14.408;2023-12-07T00:30:01;97760.09;;;1.11;100.00
38912;BME280;28444;48.056;14.408;2023-12-07T00:32:29;97762.31;;;1.07;100.00
38912;BME280;28444;48.056;14.408;2023-12-07T00:34:56;97763.03;;;1.13;100.00
38912;BME280;28444;48.056;14.408;2023-12-07T00:37:23;97757.91;;;1.04;100.00
38912;BME280;28444;48.056;14.408;2023-12-07T00:39:50;97762.56;;;1.04;100.00
38912;BME280;28444;48.056;14.408;2023-12-07T00:42:16;97762.56;;;1.04;100.00
38912;BME280;28444;48.056;14.408;2023-12-07T00:44:43;97768.94;;;1.06;100.00
38912;BME280;28444;48.056;14.408;2023-12-07T00:47:10;97764.28;;;1.01;100.00
38912;BME280;28444;48.056;14.408;2023-12-07T00:49:40;97764.03;;;0.93;100.00
38912;BME280;28444;48.056;14.408;2023-12-07T00:52:09;97775.56;;;1.00;100.00
38912;BME280;28444;48.056;14.408;2023-12-07T00:54:36;97772.59;;;0.98;100.00
38912;BME280;28444;48.056;14.408;2023-12-07T00:57:03;97771.88;;;1.03;100.00
38912;BME280;28444;48.056;14.408;2023-12-07T00:59:32;97774.06;;;1.04;100.00
38912;BME280;28444;48.056;14.408;2023-12-07T01:02:01;97781.69;;;1.06;100.00
38912;BME280;28444;48.056;14.408;2023-12-07T01:04:28;97778.47;;;1.02;100.00
38912;BME280;28444;48.056;14.408;2023-12-07T01:06:55;97782.16;;;1.04;100.00
38912;BME280;28444;48.056;14.408;2023-12-07T01:09:29;97780.19;;;1.05;100.00
38912;BME280;28444;48.056;14.408;2023-12-07T01:12:05;97786.56;;;1.07;100.00
38912;BME280;28444;48.056;14.408;2023-12-07T01:14:39;97777.28;;;1.03;100.00
38912;BME280;28444;48.056;14.408;2023-12-07T01:17:15;97787.56;;;0.99;100.00
38912;BME280;28444;48.056;14.408;2023-12-07T01:19:43;97794.88;;;1.04;100.00
38912;BME280;28444;48.056;14.408;2023-12-07T01:22:09;97793.88;;;1.12;100.00
38912;BME280;28444;48.056;14.408;2023-12-07T01:24:36;97804.94;;;1.03;100.00
38912;BME280;28444;48.056;14.408;2023-12-07T01:27:03;97802.97;;;1.09;100.00
38912;BME280;28444;48.056;14.408;2023-12-07T01:29:29;97812.53;;;1.10;100.00
38912;BME280;28444;48.056;14.408;2023-12-07T01:31:56;97810.31;;;1.14;100.00
38912;BME280;28444;48.056;14.408;2023-12-07T01:34:23;97810.56;;;1.16;100.00
38912;BME280;28444;48.056;14.408;2023-12-07T01:36:49;97812.03;;;1.17;100.00
38912;BME280;28444;48.056;14.408;2023-12-07T01:39:16;97811.06;;;1.09;100.00
38912;BME280;28444;48.056;14.408;2023-12-07T01:41:42;97808.84;;;1.08;100.00
38912;BME280;28444;48.056;14.408;2023-12-07T01:44:10;97817.41;;;1.06;100.00
38912;BME280;28444;48.056;14.408;2023-12-07T01:46:36;97822.78;;;1.17;100.00
38912;BME280;28444;48.056;14.408;2023-12-07T01:49:03;97820.56;;;1.16;100.00
38912;BME280;28444;48.056;14.408;2023-12-07T01:51:30;97817.66;;;1.14;100.00
38912;BME280;28444;48.056;14.408;2023-12-07T01:53:57;97820.13;;;1.06;100.00
38912;BME280;28444;48.056;14.408;2023-12-07T01:56:25;97822.78;;;1.12;100.00
38912;BME280;28444;48.056;14.408;2023-12-07T01:58:52;97828.19;;;1.12;100.00
38912;BME280;28444;48.056;14.408;2023-12-07T02:01:19;97832.59;;;1.09;100.00
38912;BME280;28444;48.056;14.408;2023-12-07T02:03:46;97833.56;;;1.12;100.00
38912;BME280;28444;48.056;14.408;2023-12-07T02:06:13;97821.56;;;1.07;100.00
38912;BME280;28444;48.056;14.408;2023-12-07T02:08:40;97829.41;;;1.16;100.00
38912;BME280;28444;48.056;14.408;2023-12-07T02:11:08;97820.56;;;1.16;100.00
38912;BME280;28444;48.056;14.408;2023-12-07T02:13:37;97818.66;;;1.16;100.00
38912;BME280;28444;48.056;14.408;2023-12-07T02:16:11;97823.53;;;1.18;100.00
38912;BME280;28444;48.056;14.408;2023-12-07T02:18:45;97835.53;;;1.11;100.00
38912;BME280;28444;48.056;14.408;2023-12-07T02:21:38;97838.72;;;1.10;100.00
38912;BME280;28444;48.056;14.408;2023-12-07T02:24:08;97832.84;;;1.06;100.00
38912;BME280;28444;48.056;14.408;2023-12-07T02:26:38;97836.28;;;1.06;100.00
38912;BME280;28444;48.056;14.408;2023-12-07T02:29:04;97833.81;;;0.97;100.00
38912;BME280;28444;48.056;14.408;2023-12-07T02:31:31;97841.41;;;1.04;100.00
38912;BME280;28444;48.056;14.408;2023-12-07T02:33:58;97829.66;;;1.02;100.00
38912;BME280;28444;48.056;14.408;2023-12-07T02:36:27;97840.19;;;1.05;100.00
38912;BME280;28444;48.056;14.408;2023-12-07T02:38:57;97854.66;;;1.02;100.00
38912;BME280;28444;48.056;14.408;2023-12-07T02:41:25;97852.94;;;0.99;100.00
38912;BME280;28444;48.056;14.408;2023-12-07T02:43:53;97850.25;;;0.99;100.00
38912;BME280;28444;48.056;14.408;2023-12-07T02:46:20;97858.31;;;0.93;100.00
38912;BME280;28444;48.056;14.408;2023-12-07T02:48:47;97853.91;;;0.96;100.00
38912;BME280;28444;48.056;14.408;2023-12-07T02:51:14;97849.97;;;0.97;100.00
38912;BME280;28444;48.056;14.408;2023-12-07T02:53:41;97854.16;;;1.04;100.00
38912;BME280;28444;48.056;14.408;2023-12-07T02:56:07;97854.88;;;1.04;100.00
38912;BME280;28444;48.056;14.408;2023-12-07T02:58:34;97860.50;;;1.01;100.00
38912;BME280;28444;48.056;14.408;2023-12-07T03:01:01;97862.97;;;0.99;100.00
38912;BME280;28444;48.056;14.408;2023-12-07T03:03:28;97866.41;;;1.10;100.00
38912;BME280;28444;48.056;14.408;2023-12-07T03:05:54;97869.31;;;1.01;100.00
38912;BME280;28444;48.056;14.408;2023-12-07T03:08:21;97877.41;;;1.07;100.00
38912;BME280;28444;48.056;14.408;2023-12-07T03:10:48;97875.22;;;1.11;100.00
38912;BME280;28444;48.056;14.408;2023-12-07T03:13:15;97884.53;;;1.10;100.00
38912;BME280;28444;48.056;14.408;2023-12-07T03:15:41;97882.31;;;1.08;100.00
38912;BME280;28444;48.056;14.408;2023-12-07T03:18:08;97879.88;;;1.10;100.00
38912;BME280;28444;48.056;14.408;2023-12-07T03:20:35;97874.72;;;1.07;100.00
38912;BME280;28444;48.056;14.408;2023-12-07T03:23:01;97877.88;;;1.05;100.00
38912;BME280;28444;48.056;14.408;2023-12-07T03:25:28;97877.16;;;1.05;100.00
38912;BME280;28444;48.056;14.408;2023-12-07T03:27:55;97892.84;;;1.06;100.00
38912;BME280;28444;48.056;14.408;2023-12-07T03:30:22;97883.78;;;1.04;100.00
38912;BME280;28444;48.056;14.408;2023-12-07T03:32:48;97898.72;;;1.05;100.00
38912;BME280;28444;48.056;14.408;2023-12-07T03:35:15;97897.50;;;1.00;100.00
38912;BME280;28444;48.056;14.408;2023-12-07T03:37:42;97893.56;;;1.01;100.00
38912;BME280;28444;48.056;14.408;2023-12-07T03:40:09;97895.53;;;1.01;100.00
38912;BME280;28444;48.056;14.408;2023-12-07T03:42:35;97895.53;;;1.06;100.00
38912;BME280;28444;48.056;14.408;2023-12-07T03:45:21;97907.78;;;1.07;100.00
38912;BME280;28444;48.056;14.408;2023-12-07T03:47:48;97909.00;;;1.06;100.00
38912;BME280;28444;48.056;14.408;2023-12-07T03:50:15;97909.72;;;1.12;100.00
38912;BME280;28444;48.056;14.408;2023-12-07T03:52:42;97914.41;;;1.06;100.00
38912;BME280;28444;48.056;14.408;2023-12-07T03:55:09;97921.00;;;1.05;100.00
38912;BME280;28444;48.056;14.408;2023-12-07T03:57:37;97922.00;;;1.02;100.00
38912;BME280;28444;48.056;14.408;2023-12-07T04:00:05;97927.38;;;1.02;100.00
38912;BME280;28444;48.056;14.408;2023-12-07T04:02:35;97927.88;;;1.06;100.00
38912;BME280;28444;48.056;14.408;2023-12-07T04:05:02;97923.69;;;1.05;100.00
38912;BME280;28444;48.056;14.408;2023-12-07T04:07:29;97920.00;;;0.97;100.00
38912;BME280;28444;48.056;14.408;2023-12-07T04:09:58;97920.75;;;0.98;100.00
38912;BME280;28444;48.056;14.408;2023-12-07T04:12:25;97926.38;;;0.94;100.00
38912;BME280;28444;48.056;14.408;2023-12-07T04:14:52;97924.66;;;0.91;100.00
38912;BME280;28444;48.056;14.408;2023-12-07T04:17:19;97931.53;;;0.92;100.00
38912;BME280;28444;48.056;14.408;2023-12-07T04:19:45;97925.88;;;0.90;100.00
38912;BME280;28444;48.056;14.408;2023-12-07T04:22:12;97927.84;;;0.89;100.00
38912;BME280;28444;48.056;14.408;2023-12-07T04:24:39;97932.50;;;0.89;100.00
38912;BME280;28444;48.056;14.408;2023-12-07T04:27:05;97933.00;;;0.87;100.00
38912;BME280;28444;48.056;14.408;2023-12-07T04:29:32;97930.28;;;0.93;100.00
38912;BME280;28444;48.056;14.408;2023-12-07T04:31:59;97934.69;;;0.85;100.00
38912;BME280;28444;48.056;14.408;2023-12-07T04:34:26;97937.63;;;0.81;100.00
38912;BME280;28444;48.056;14.408;2023-12-07T04:36:53;97942.00;;;0.79;100.00
38912;BME280;28444;48.056;14.408;2023-12-07T04:39:19;97941.53;;;0.80;100.00
38912;BME280;28444;48.056;14.408;2023-12-07T04:41:46;97942.75;;;0.79;100.00
38912;BME280;28444;48.056;14.408;2023-12-07T04:44:13;97951.81;;;0.82;100.00
38912;BME280;28444;48.056;14.408;2023-12-07T04:46:39;97951.81;;;0.82;100.00
38912;BME280;28444;48.056;14.408;2023-12-07T04:49:06;97947.66;;;0.86;100.00
38912;BME280;28444;48.056;14.408;2023-12-07T04:51:33;97951.84;;;0.93;100.00
38912;BME280;28444;48.056;14.408;2023-12-07T04:53:59;97969.69;;;0.85;100.00
38912;BME280;28444;48.056;14.408;2023-12-07T04:56:41;97963.84;;;0.92;100.00
38912;BME280;28444;48.056;14.408;2023-12-07T04:59:09;97964.84;;;0.94;100.00
38912;BME280;28444;48.056;14.408;2023-12-07T05:01:36;97959.19;;;0.92;100.00
38912;BME280;28444;48.056;14.408;2023-12-07T05:04:04;97968.00;;;0.93;100.00
38912;BME280;28444;48.056;14.408;2023-12-07T05:06:31;97970.69;;;0.93;100.00
38912;BME280;28444;48.056;14.408;2023-12-07T05:08:58;97974.38;;;0.95;100.00
38912;BME280;28444;48.056;14.408;2023-12-07T05:11:25;97983.19;;;1.02;100.00
38912;BME280;28444;48.056;14.408;2023-12-07T05:13:51;97978.56;;;1.02;100.00
38912;BME280;28444;48.056;14.408;2023-12-07T05:16:18;97974.84;;;0.94;100.00
38912;BME280;28444;48.056;14.408;2023-12-07T05:18:45;97984.88;;;0.93;100.00
38912;BME280;28444;48.056;14.408;2023-12-07T05:21:11;97989.06;;;1.00;100.00
38912;BME280;28444;48.056;14.408;2023-12-07T05:23:38;97989.56;;;0.99;100.00
38912;BME280;28444;48.056;14.408;2023-12-07T05:26:05;97994.94;;;0.93;100.00
38912;BME280;28444;48.056;14.408;2023-12-07T05:28:36;97982.47;;;0.95;100.00
38912;BME280;28444;48.056;14.408;2023-12-07T05:31:03;97988.31;;;0.94;100.00
38912;BME280;28444;48.056;14.408;2023-12-07T05:33:29;97985.84;;;0.90;100.00
38912;BME280;28444;48.056;14.408;2023-12-07T05:35:56;97988.56;;;0.85;100.00
38912;BME280;28444;48.056;14.408;2023-12-07T05:38:23;97995.66;;;0.88;100.00
38912;BME280;28444;48.056;14.408;2023-12-07T05:40:49;97994.16;;;0.81;100.00
38912;BME280;28444;48.056;14.408;2023-12-07T05:43:16;97997.59;;;0.82;100.00
38912;BME280;28444;48.056;14.408;2023-12-07T05:45:45;97997.56;;;0.76;100.00
38912;BME280;28444;48.056;14.408;2023-12-07T05:48:12;97997.06;;;0.72;100.00
38912;BME280;28444;48.056;14.408;2023-12-07T05:50:40;98009.34;;;0.84;100.00
38912;BME280;28444;48.056;14.408;2023-12-07T05:53:07;98005.19;;;0.89;100.00
38912;BME280;28444;48.056;14.408;2023-12-07T05:55:33;98006.91;;;0.86;100.00
38912;BME280;28444;48.056;14.408;2023-12-07T05:58:00;98010.09;;;0.85;100.00
38912;BME280;28444;48.056;14.408;2023-12-07T06:00:27;98006.91;;;0.86;100.00
38912;BME280;28444;48.056;14.408;2023-12-07T06:02:54;98016.47;;;0.87;100.00
38912;BME280;28444;48.056;14.408;2023-12-07T06:05:21;98016.00;;;1.00;100.00
38912;BME280;28444;48.056;14.408;2023-12-07T06:07:47;98015.78;;;0.98;100.00
38912;BME280;28444;48.056;14.408;2023-12-07T06:10:14;98014.03;;;1.01;100.00
38912;BME280;28444;48.056;14.408;2023-12-07T06:12:41;98019.91;;;0.93;100.00
38912;BME280;28444;48.056;14.408;2023-12-07T06:15:08;98025.06;;;0.97;100.00
38912;BME280;28444;48.056;14.408;2023-12-07T06:17:36;98029.94;;;0.93;100.00
38912;BME280;28444;48.056;14.408;2023-12-07T06:20:03;98026.78;;;1.00;100.00
38912;BME280;28444;48.056;14.408;2023-12-07T06:22:30;98025.28;;;0.93;100.00
38912;BME280;28444;48.056;14.408;2023-12-07T06:24:57;98022.13;;;0.95;100.00
38912;BME280;28444;48.056;14.408;2023-12-07T06:27:24;98026.75;;;0.89;100.00
38912;BME280;28444;48.056;14.408;2023-12-07T06:29:50;98025.28;;;0.88;100.00
38912;BME280;28444;48.056;14.408;2023-12-07T06:32:17;98027.00;;;0.96;100.00
38912;BME280;28444;48.056;14.408;2023-12-07T06:34:44;98026.75;;;0.89;100.00
38912;BME280;28444;48.056;14.408;2023-12-07T06:37:11;98032.41;;;0.91;100.00
38912;BME280;28444;48.056;14.408;2023-12-07T06:39:38;98034.09;;;0.94;100.00
38912;BME280;28444;48.056;14.408;2023-12-07T06:42:05;98031.16;;;0.92;100.00
38912;BME280;28444;48.056;14.408;2023-12-07T06:44:32;98031.91;;;0.92;100.00
38912;BME280;28444;48.056;14.408;2023-12-07T06:46:59;98035.59;;;0.95;100.00
38912;BME280;28444;48.056;14.408;2023-12-07T06:49:29;98037.81;;;1.02;100.00
38912;BME280;28444;48.056;14.408;2023-12-07T06:52:12;98034.84;;;0.94;100.00
38912;BME280;28444;48.056;14.408;2023-12-07T06:54:39;98038.28;;;0.95;100.00
38912;BME280;28444;48.056;14.408;2023-12-07T06:57:06;98047.34;;;0.98;100.00
38912;BME280;28444;48.056;14.408;2023-12-07T06:59:35;98042.91;;;0.89;100.00
38912;BME280;28444;48.056;14.408;2023-12-07T07:02:02;98049.06;;;0.95;100.00
38912;BME280;28444;48.056;14.408;2023-12-07T07:04:29;98053.94;;;0.96;100.00
38912;BME280;28444;48.056;14.408;2023-12-07T07:06:56;98055.22;;;1.07;100.00
38912;BME280;28444;48.056;14.408;2023-12-07T07:09:24;98052.75;;;1.03;100.00
38912;BME280;28444;48.056;14.408;2023-12-07T07:11:51;98046.16;;;1.10;100.00
38912;BME280;28444;48.056;14.408;2023-12-07T07:14:19;98049.81;;;1.12;100.00
38912;BME280;28444;48.056;14.408;2023-12-07T07:16:45;98053.47;;;1.04;100.00
38912;BME280;28444;48.056;14.408;2023-12-07T07:19:13;98054.72;;;1.08;100.00
38912;BME280;28444;48.056;14.408;2023-12-07T07:21:40;98057.66;;;1.05;99.39
38912;BME280;28444;48.056;14.408;2023-12-07T07:24:07;98068.66;;;1.01;100.00
38912;BME280;28444;48.056;14.408;2023-12-07T07:26:35;98068.91;;;1.03;100.00
38912;BME280;28444;48.056;14.408;2023-12-07T07:29:02;98068.44;;;1.16;99.71
38912;BME280;28444;48.056;14.408;2023-12-07T07:31:30;98066.47;;;1.05;99.76
38912;BME280;28444;48.056;14.408;2023-12-07T07:33:57;98066.97;;;1.09;99.58
38912;BME280;28444;48.056;14.408;2023-12-07T07:36:27;98062.31;;;1.10;99.54
38912;BME280;28444;48.056;14.408;2023-12-07T07:38:54;98065.75;;;1.16;98.84
38912;BME280;28444;48.056;14.408;2023-12-07T07:41:21;98059.63;;;1.10;98.15
38912;BME280;28444;48.056;14.408;2023-12-07T07:43:48;98066.97;;;1.09;99.56
38912;BME280;28444;48.056;14.408;2023-12-07T07:46:14;98065.03;;;1.15;98.38
38912;BME280;28444;48.056;14.408;2023-12-07T07:48:41;98058.41;;;1.11;99.02
38912;BME280;28444;48.056;14.408;2023-12-07T07:51:08;98066.25;;;1.14;99.12
38912;BME280;28444;48.056;14.408;2023-12-07T07:53:35;98065.28;;;1.17;99.06
38912;BME280;28444;48.056;14.408;2023-12-07T07:56:01;98059.91;;;1.17;98.97
38912;BME280;28444;48.056;14.408;2023-12-07T07:58:28;98061.59;;;1.09;98.69
38912;BME280;28444;48.056;14.408;2023-12-07T08:00:55;98062.34;;;1.21;99.10
38912;BME280;28444;48.056;14.408;2023-12-07T08:03:21;98063.34;;;1.29;97.78
38912;BME280;28444;48.056;14.408;2023-12-07T08:05:48;98060.19;;;1.31;98.05
38912;BME280;28444;48.056;14.408;2023-12-07T08:08:15;98056.00;;;1.30;97.77
38912;BME280;28444;48.056;14.408;2023-12-07T08:10:42;98066.31;;;1.37;97.47
38912;BME280;28444;48.056;14.408;2023-12-07T08:13:21;98065.06;;;1.38;96.92
38912;BME280;28444;48.056;14.408;2023-12-07T08:15:48;98063.88;;;1.39;97.32
38912;BME280;28444;48.056;14.408;2023-12-07T08:18:15;98057.75;;;1.44;95.72
38912;BME280;28444;48.056;14.408;2023-12-07T08:20:42;98068.75;;;1.40;96.43
38912;BME280;28444;48.056;14.408;2023-12-07T08:23:09;98059.69;;;1.43;95.84
38912;BME280;28444;48.056;14.408;2023-12-07T08:25:38;98059.97;;;1.51;95.88
38912;BME280;28444;48.056;14.408;2023-12-07T08:28:05;98056.78;;;1.58;95.63
38912;BME280;28444;48.056;14.408;2023-12-07T08:30:32;98057.53;;;1.53;95.79
38912;BME280;28444;48.056;14.408;2023-12-07T08:32:58;98058.75;;;1.63;95.02
38912;BME280;28444;48.056;14.408;2023-12-07T08:35:25;98056.81;;;1.64;94.37
38912;BME280;28444;48.056;14.408;2023-12-07T08:37:52;98056.78;;;1.69;94.78
38912;BME280;28444;48.056;14.408;2023-12-07T08:40:19;98058.50;;;1.73;94.32
38912;BME280;28444;48.056;14.408;2023-12-07T08:42:46;98064.88;;;1.81;93.36
38912;BME280;28444;48.056;14.408;2023-12-07T08:45:18;98067.09;;;1.77;93.82
38912;BME280;28444;48.056;14.408;2023-12-07T08:47:45;98063.19;;;1.89;92.47
38912;BME280;28444;48.056;14.408;2023-12-07T08:50:12;98066.13;;;1.85;93.09
38912;BME280;28444;48.056;14.408;2023-12-07T08:52:38;98072.00;;;1.84;92.66
38912;BME280;28444;48.056;14.408;2023-12-07T08:55:15;98067.09;;;1.82;91.94
38912;BME280;28444;48.056;14.408;2023-12-07T08:57:45;98074.69;;;1.84;92.09
38912;BME280;28444;48.056;14.408;2023-12-07T09:00:12;98070.53;;;1.83;92.07
38912;BME280;28444;48.056;14.408;2023-12-07T09:02:42;98076.41;;;1.81;91.88
38912;BME280;28444;48.056;14.408;2023-12-07T09:05:14;98073.47;;;1.85;92.34
38912;BME280;28444;48.056;14.408;2023-12-07T09:07:41;98073.97;;;1.95;91.06
38912;BME280;28444;48.056;14.408;2023-12-07T09:10:08;98071.03;;;1.92;91.96
38912;BME280;28444;48.056;14.408;2023-12-07T09:12:36;98070.28;;;1.98;90.96
38912;BME280;28444;48.056;14.408;2023-12-07T09:15:06;98066.34;;;1.99;90.99
38912;BME280;28444;48.056;14.408;2023-12-07T09:17:40;98071.25;;;1.95;91.81
38912;BME280;28444;48.056;14.408;2023-12-07T09:20:08;98071.50;;;2.02;91.21
38912;BME280;28444;48.056;14.408;2023-12-07T09:22:42;98069.53;;;2.08;90.87
38912;BME280;28444;48.056;14.408;2023-12-07T09:25:10;98065.88;;;2.00;91.08
38912;BME280;28444;48.056;14.408;2023-12-07T09:27:38;98071.50;;;2.02;91.56
38912;BME280;28444;48.056;14.408;2023-12-07T09:30:07;98065.59;;;2.09;91.29
38912;BME280;28444;48.056;14.408;2023-12-07T09:32:38;98072.72;;;2.12;90.61
38912;BME280;28444;48.056;14.408;2023-12-07T09:35:06;98070.50;;;2.16;91.72
38912;BME280;28444;48.056;14.408;2023-12-07T09:37:48;98060.19;;;2.21;91.43
38912;BME280;28444;48.056;14.408;2023-12-07T09:40:19;98058.00;;;2.19;90.79
38912;BME280;28444;48.056;14.408;2023-12-07T09:42:48;98057.25;;;2.24;90.76
38912;BME280;28444;48.056;14.408;2023-12-07T09:45:16;98071.25;;;2.23;90.12
38912;BME280;28444;48.056;14.408;2023-12-07T09:47:49;98065.81;;;2.28;90.18
38912;BME280;28444;48.056;14.408;2023-12-07T09:50:18;98064.34;;;2.38;89.27
38912;BME280;28444;48.056;14.408;2023-12-07T09:52:47;98056.72;;;2.42;88.74
38912;BME280;28444;48.056;14.408;2023-12-07T09:55:30;98050.91;;;2.22;88.25
38912;BME280;28444;48.056;14.408;2023-12-07T09:57:57;98050.41;;;2.29;87.85
38912;BME280;28444;48.056;14.408;2023-12-07T10:00:24;98050.88;;;2.27;88.35
38912;BME280;28444;48.056;14.408;2023-12-07T10:02:52;98044.22;;;2.28;88.43
38912;BME280;28444;48.056;14.408;2023-12-07T10:05:21;98048.94;;;2.22;88.96
38912;BME280;28444;48.056;14.408;2023-12-07T10:07:49;98054.56;;;2.13;89.35
38912;BME280;28444;48.056;14.408;2023-12-07T10:10:17;98053.34;;;2.20;88.88
38912;BME280;28444;48.056;14.408;2023-12-07T10:15:17;98049.16;;;2.13;89.18
38912;BME280;28444;48.056;14.408;2023-12-07T10:17:55;98052.88;;;1.99;89.78
38912;BME280;28444;48.056;14.408;2023-12-07T10:20:28;98049.19;;;2.19;88.21
38912;BME280;28444;48.056;14.408;2023-12-07T10:23:07;98043.28;;;2.14;89.44
38912;BME280;28444;48.056;14.408;2023-12-07T10:25:39;98043.28;;;2.03;89.37
38912;BME280;28444;48.056;14.408;2023-12-07T10:28:08;98044.53;;;2.02;88.78
38912;BME280;28444;48.056;14.408;2023-12-07T10:30:40;98041.59;;;2.00;88.76
38912;BME280;28444;48.056;14.408;2023-12-07T10:33:10;98045.75;;;2.07;89.21
38912;BME280;28444;48.056;14.408;2023-12-07T10:35:43;98035.94;;;2.09;88.93
38912;BME280;28444;48.056;14.408;2023-12-07T10:38:11;98030.78;;;2.11;88.80
38912;BME280;28444;48.056;14.408;2023-12-07T10:40:39;98041.06;;;2.13;88.89
38912;BME280;28444;48.056;14.408;2023-12-07T10:43:07;98037.41;;;2.22;88.30
38912;BME280;28444;48.056;14.408;2023-12-07T10:45:35;98024.16;;;2.07;88.08
38912;BME280;28444;48.056;14.408;2023-12-07T10:48:08;98025.88;;;2.15;88.79
38912;BME280;28444;48.056;14.408;2023-12-07T10:50:37;98040.81;;;2.28;88.40
38912;BME280;28444;48.056;14.408;2023-12-07T10:53:11;98035.88;;;2.32;87.34
38912;BME280;28444;48.056;14.408;2023-12-07T10:55:46;98037.84;;;2.31;87.21
38912;BME280;28444;48.056;14.408;2023-12-07T10:58:16;98032.22;;;2.24;88.06
38912;BME280;28444;48.056;14.408;2023-12-07T11:00:44;98037.38;;;2.27;87.82
38912;BME280;28444;48.056;14.408;2023-12-07T11:03:16;98035.16;;;2.37;87.28
38912;BME280;28444;48.056;14.408;2023-12-07T11:05:52;98034.69;;;2.33;86.89
38912;BME280;28444;48.056;14.408;2023-12-07T11:14:05;98020.84;;;2.53;87.15
38912;BME280;28444;48.056;14.408;2023-12-07T11:16:35;98018.16;;;2.59;86.66
38912;BME280;28444;48.056;14.408;2023-12-07T11:19:03;98012.03;;;2.58;86.30
38912;BME280;28444;48.056;14.408;2023-12-07T11:21:38;98017.16;;;2.62;86.21
38912;BME280;28444;48.056;14.408;2023-12-07T11:24:05;98014.63;;;2.75;85.12
38912;BME280;28444;48.056;14.408;2023-12-07T11:26:32;98007.25;;;2.81;85.00
38912;BME280;28444;48.056;14.408;2023-12-07T11:28:59;98011.69;;;2.79;85.15
38912;BME280;28444;48.056;14.408;2023-12-07T11:31:27;98011.69;;;2.79;84.79
38912;BME280;28444;48.056;14.408;2023-12-07T11:33:54;98016.53;;;2.92;84.44
38912;BME280;28444;48.056;14.408;2023-12-07T11:36:20;98010.63;;;2.99;84.21
38912;BME280;28444;48.056;14.408;2023-12-07T11:41:50;98011.34;;;2.99;83.86
38912;BME280;28444;48.056;14.408;2023-12-07T11:44:17;98003.78;;;2.86;85.00
38912;BME280;28444;48.056;14.408;2023-12-07T11:46:44;98001.25;;;3.00;84.36
38912;BME280;28444;48.056;14.408;2023-12-07T11:49:11;98002.19;;;3.08;83.84
38912;BME280;28444;48.056;14.408;2023-12-07T11:51:54;98007.13;;;3.09;84.17
38912;BME280;28444;48.056;14.408;2023-12-07T11:54:22;97999.47;;;3.13;83.11
38912;BME280;28444;48.056;14.408;2023-12-07T11:56:55;98005.59;;;3.20;83.39
38912;BME280;28444;48.056;14.408;2023-12-07T11:59:23;97996.59;;;3.00;84.18
38912;BME280;28444;48.056;14.408;2023-12-07T12:02:00;98002.59;;;2.82;85.00
38912;BME280;28444;48.056;14.408;2023-12-07T12:04:29;97994.03;;;2.72;85.12
38912;BME280;28444;48.056;14.408;2023-12-07T12:06:56;97997.22;;;2.76;86.06
38912;BME280;28444;48.056;14.408;2023-12-07T12:09:25;97993.28;;;2.72;85.00
38912;BME280;28444;48.056;14.408;2023-12-07T12:11:58;97994.06;;;2.67;85.17
38912;BME280;28444;48.056;14.408;2023-12-07T12:14:27;97993.25;;;2.83;84.92
38912;BME280;28444;48.056;14.408;2023-12-07T12:16:57;97991.59;;;2.69;85.53
38912;BME280;28444;48.056;14.408;2023-12-07T12:19:24;97984.75;;;2.62;84.54
38912;BME280;28444;48.056;14.408;2023-12-07T12:22:02;97981.84;;;2.54;85.39
38912;BME280;28444;48.056;14.408;2023-12-07T12:24:34;97982.84;;;2.46;85.61
38912;BME280;28444;48.056;14.408;2023-12-07T12:27:01;97993.72;;;2.23;86.56
38912;BME280;28444;48.056;14.408;2023-12-07T12:29:28;97994.19;;;2.33;86.56
38912;BME280;28444;48.056;14.408;2023-12-07T12:32:01;97997.38;;;2.37;86.61
38912;BME280;28444;48.056;14.408;2023-12-07T12:34:29;97993.38;;;2.49;85.10
38912;BME280;28444;48.056;14.408;2023-12-07T12:36:56;97997.38;;;2.37;86.66
38912;BME280;28444;48.056;14.408;2023-12-07T12:39:30;97991.72;;;2.35;85.88
38912;BME280;28444;48.056;14.408;2023-12-07T12:42:00;97989.75;;;2.35;86.31
38912;BME280;28444;48.056;14.408;2023-12-07T12:44:27;97997.59;;;2.39;86.12
38912;BME280;28444;48.056;14.408;2023-12-07T12:47:07;98001.53;;;2.38;86.89
38912;BME280;28444;48.056;14.408;2023-12-07T12:49:38;97990.25;;;2.28;84.98
38912;BME280;28444;48.056;14.408;2023-12-07T12:52:14;97986.81;;;2.33;85.86
38912;BME280;28444;48.056;14.408;2023-12-07T12:54:43;97995.41;;;2.32;84.99
38912;BME280;28444;48.056;14.408;2023-12-07T12:57:10;97989.78;;;2.30;85.68
38912;BME280;28444;48.056;14.408;2023-12-07T12:59:37;97988.06;;;2.27;85.45
38912;BME280;28444;48.056;14.408;2023-12-07T13:02:04;97985.88;;;2.25;85.22
38912;BME280;28444;48.056;14.408;2023-12-07T13:04:31;97984.13;;;2.28;84.82
38912;BME280;28444;48.056;14.408;2023-12-07T13:07:07;97980.69;;;2.27;85.32
38912;BME280;28444;48.056;14.408;2023-12-07T13:09:34;97979.72;;;2.30;85.26
38912;BME280;28444;48.056;14.408;2023-12-07T13:12:01;97971.88;;;2.21;85.44